Time;durP1;ratioP1;P1;durP2;ratioP2;P2;SDS_P1;SDS_P2;PMS_P1;PMS_P2;Temp;Humidity;BMP_temperature;BMP_pressure;BME280_temperature;BME280_humidity;BME280_pressure;Samples;Min_cycle;Max_cycle;Signal;HPM_P1;HPM_P2
2022/12/21 00:01:26;;;;;;;6.10;3.42;;;10.10;99.90;;;9.54;100.00;97630.88;5019948;28;20073;-73
2022/12/21 00:03:59;;;;;;;9.23;4.13;;;10.10;99.90;;;9.54;100.00;97623.13;5020540;28;20045;-73
2022/12/21 00:06:31;;;;;;;7.25;3.70;;;10.10;99.90;;;10.24;100.00;97659.28;5008215;28;20088;-73
2022/12/21 00:09:00;;;;;;;8.77;3.40;;;10.10;99.90;;;10.23;100.00;97620.41;5019760;28;20399;-74
2022/12/21 00:11:29;;;;;;;8.98;4.20;;;10.10;99.90;;;10.12;100.00;97613.06;5025079;28;20053;-73
2022/12/21 00:13:59;;;;;;;10.70;4.15;;;10.10;99.90;;;10.13;100.00;97632.91;5016103;28;20049;-73
2022/12/21 00:16:29;;;;;;;8.95;3.97;;;10.10;99.90;;;10.18;100.00;97611.97;5023887;28;20060;-74
2022/12/21 00:18:58;;;;;;;6.80;3.78;;;10.00;99.90;;;10.08;100.00;97616.69;5016820;28;20042;-73
2022/12/21 00:21:31;;;;;;;8.90;3.63;;;10.00;99.90;;;10.16;100.00;97600.81;5018228;28;20045;-73
2022/12/21 00:23:59;;;;;;;8.15;4.60;;;9.90;99.90;;;9.98;100.00;97611.00;5025847;28;20045;-74
2022/12/21 00:26:33;;;;;;;8.02;4.93;;;10.00;99.90;;;10.14;100.00;97587.06;5020768;28;20050;-73
2022/12/21 00:29:01;;;;;;;7.90;4.60;;;10.00;99.90;;;9.76;100.00;97590.28;5020106;28;20049;-73
2022/12/21 00:31:32;;;;;;;8.40;4.85;;;10.00;99.90;;;9.78;100.00;97564.28;5023877;28;20057;-74
2022/12/21 00:34:00;;;;;;;9.32;4.97;;;10.00;99.90;;;9.70;100.00;97576.72;5019203;28;20494;-73
2022/12/21 00:36:29;;;;;;;6.10;4.40;;;10.00;99.90;;;9.63;100.00;97589.91;5021980;28;20124;-74
2022/12/21 00:38:57;;;;;;;11.15;3.95;;;10.00;99.90;;;9.58;100.00;97593.59;5034360;28;20091;-74
2022/12/21 00:41:26;;;;;;;7.00;3.65;;;10.00;99.90;;;9.56;100.00;97582.44;5020826;28;20050;-73
2022/12/21 00:43:54;;;;;;;7.05;3.50;;;10.00;99.90;;;9.46;100.00;97565.53;5020105;28;20054;-74
2022/12/21 00:46:40;;;;;;;6.55;3.22;;;10.00;99.90;;;9.53;100.00;97590.31;5016711;28;20404;-74
2022/12/21 00:49:09;;;;;;;9.23;3.13;;;10.00;99.90;;;9.49;100.00;97584.41;5017980;28;20052;-74
2022/12/21 00:51:36;;;;;;;5.53;2.45;;;10.10;99.90;;;9.48;100.00;97574.94;5018292;28;20725;-73
2022/12/21 00:54:03;;;;;;;4.78;2.22;;;10.10;99.90;;;9.60;100.00;97602.13;5018365;28;20049;-74
2022/12/21 00:56:30;;;;;;;4.97;2.55;;;10.10;99.90;;;9.53;100.00;97598.09;5026087;28;20111;-73
2022/12/21 00:58:57;;;;;;;4.88;3.00;;;10.00;99.90;;;9.60;100.00;97573.63;5019325;28;20057;-74
2022/12/21 01:01:29;;;;;;;3.40;2.10;;;10.00;99.90;;;9.54;100.00;97573.88;5016794;28;20053;-74
2022/12/21 01:03:57;;;;;;;3.00;1.90;;;10.00;99.90;;;9.80;100.00;97567.66;5018693;28;20427;-74
2022/12/21 01:06:29;;;;;;;2.92;1.65;;;10.10;99.90;;;9.78;100.00;97593.66;5018959;28;20073;-74
2022/12/21 01:08:57;;;;;;;5.47;2.20;;;10.10;99.90;;;9.68;100.00;97597.50;5022731;28;20056;-73
2022/12/21 01:11:25;;;;;;;7.60;2.70;;;10.10;99.90;;;9.80;100.00;97554.72;5020479;28;20133;-74
2022/12/21 01:13:54;;;;;;;3.50;1.88;;;10.10;99.90;;;9.72;100.00;97580.09;5020656;28;20053;-74
2022/12/21 01:16:31;;;;;;;5.72;2.22;;;10.10;99.90;;;9.75;100.00;97577.38;5019138;28;20518;-74
2022/12/21 01:19:00;;;;;;;3.70;1.70;;;10.10;99.90;;;9.74;100.00;97560.13;5022193;28;20088;-74
2022/12/21 01:21:30;;;;;;;3.80;1.80;;;10.10;99.90;;;9.74;100.00;97539.38;5018382;28;20046;-75
2022/12/21 01:23:59;;;;;;;4.30;2.22;;;10.10;99.90;;;9.75;100.00;97567.00;5021796;28;20044;-75
2022/12/21 01:26:27;;;;;;;5.20;2.22;;;10.10;99.90;;;9.74;100.00;97580.84;5019476;28;20168;-73
2022/12/21 01:28:54;;;;;;;4.07;1.77;;;10.10;99.90;;;9.65;100.00;97579.50;5018679;28;20064;-75
2022/12/21 01:31:21;;;;;;;5.20;1.92;;;10.10;99.90;;;9.64;100.00;97551.88;5019552;28;20396;-74
2022/12/21 01:33:48;;;;;;;4.80;1.85;;;10.20;99.90;;;9.61;100.00;97545.06;5018579;28;20133;-74
2022/12/21 01:36:17;;;;;;;4.85;2.03;;;10.10;99.90;;;9.64;100.00;97564.84;5017720;28;20642;-74
2022/12/21 01:38:45;;;;;;;3.00;1.80;;;10.10;99.90;;;9.66;100.00;97564.78;5020730;28;20081;-74
2022/12/21 01:41:27;;;;;;;4.22;1.67;;;10.10;99.90;;;9.68;100.00;97589.72;5017567;28;20049;-74
2022/12/21 01:44:03;;;;;;;4.28;1.77;;;10.20;99.90;;;9.74;100.00;97571.34;5019529;28;20048;-73
2022/12/21 01:46:48;;;;;;;4.38;1.58;;;10.10;99.90;;;9.73;100.00;97590.38;5023275;28;20088;-73
2022/12/21 01:49:25;;;;;;;3.13;1.75;;;10.20;99.90;;;9.73;100.00;97581.78;5021166;28;20439;-74
2022/12/21 01:52:00;;;;;;;2.75;1.50;;;10.10;99.90;;;9.71;100.00;97587.00;5018470;28;20085;-74
2022/12/21 01:54:35;;;;;;;4.25;2.00;;;10.10;99.90;;;9.65;100.00;97576.91;5023268;28;20426;-74
2022/12/21 01:57:07;;;;;;;4.07;1.73;;;10.10;99.90;;;9.71;100.00;97565.44;5017414;28;20527;-74
2022/12/21 01:59:42;;;;;;;1.85;1.15;;;10.00;99.90;;;9.77;100.00;97586.78;5017262;28;20055;-73
2022/12/21 02:02:22;;;;;;;3.20;1.30;;;10.10;99.90;;;9.86;100.00;97582.16;5019633;28;20132;-74
2022/12/21 02:04:53;;;;;;;3.05;1.48;;;10.10;99.90;;;9.73;100.00;97561.03;5003819;28;20085;-74
2022/12/21 02:07:21;;;;;;;3.17;1.75;;;10.10;99.90;;;9.69;100.00;97562.06;5015233;28;20049;-74
2022/12/21 02:09:50;;;;;;;6.45;2.00;;;10.00;99.90;;;9.62;100.00;97564.91;5020514;28;20049;-74
2022/12/21 02:12:18;;;;;;;4.88;1.80;;;10.10;99.90;;;9.67;100.00;97562.13;5018120;28;20061;-74
2022/12/21 02:14:47;;;;;;;5.85;1.80;;;10.00;99.90;;;9.68;100.00;97543.06;5011109;28;20148;-73
2022/12/21 02:17:52;;;;;;;5.30;1.35;;;10.00;99.90;;;9.63;100.00;97565.75;5015477;28;20224;-74
2022/12/21 02:20:52;;;;;;;2.83;1.20;;;10.10;99.90;;;9.64;100.00;97537.16;5015500;28;20068;-74
2022/12/21 02:23:35;;;;;;;2.95;1.00;;;10.00;99.90;;;9.67;100.00;97572.50;5017017;28;20060;-74
2022/12/21 02:26:39;;;;;;;3.45;1.42;;;10.10;99.90;;;9.63;100.00;97542.44;5013623;28;20056;-74
2022/12/21 02:29:46;;;;;;;2.45;1.00;;;10.10;99.90;;;9.65;100.00;97548.41;5013736;28;20049;-73
2022/12/21 02:32:43;;;;;;;2.33;1.30;;;10.10;99.90;;;9.61;100.00;97520.91;5018691;28;20055;-74
2022/12/21 02:35:37;;;;;;;3.20;1.33;;;10.00;99.90;;;9.64;100.00;97525.97;4997832;28;20826;-74
2022/12/21 02:38:34;;;;;;;2.97;1.00;;;10.10;99.90;;;9.60;100.00;97516.59;5017504;28;20058;-74
2022/12/21 02:41:17;;;;;;;2.67;1.23;;;10.10;99.90;;;9.63;100.00;97514.75;5016668;28;20037;-74
2022/12/21 02:44:15;;;;;;;1.55;0.90;;;10.10;99.90;;;9.66;100.00;97539.69;5015863;28;20053;-74
2022/12/21 02:47:04;;;;;;;1.83;1.10;;;10.10;99.90;;;9.65;100.00;97514.69;5016618;28;20494;-74
2022/12/21 02:49:57;;;;;;;1.88;1.20;;;10.10;99.90;;;9.63;100.00;97506.16;5018205;28;20045;-74
2022/12/21 02:52:52;;;;;;;2.33;1.00;;;10.10;99.90;;;9.63;100.00;97521.69;5018366;28;20060;-73
2022/12/21 02:55:19;;;;;;;1.90;1.05;;;10.10;99.90;;;9.65;100.00;97506.94;5018907;28;20079;-74
2022/12/21 02:57:46;;;;;;;2.13;1.30;;;10.10;99.90;;;9.67;100.00;97492.16;5013320;28;20050;-74
2022/12/21 03:00:18;;;;;;;1.50;1.10;;;10.10;99.90;;;9.62;100.00;97514.81;5014316;28;20042;-73
2022/12/21 03:06:39;;;;;;;4.75;1.35;;;10.10;99.90;;;9.57;100.00;97496.84;5015391;28;20136;-72
2022/12/21 03:09:54;;;;;;;2.97;1.10;;;10.10;99.90;;;9.55;100.00;97503.00;5017058;28;20228;-71
2022/12/21 03:12:44;;;;;;;2.33;1.38;;;10.10;99.90;;;9.45;100.00;97509.47;5032114;28;20144;-72
2022/12/21 03:15:45;;;;;;;3.78;1.40;;;10.10;99.90;;;9.54;100.00;97478.00;5016747;28;20090;-72
2022/12/21 03:18:53;;;;;;;2.97;1.45;;;10.10;99.90;;;9.49;100.00;97498.91;5020105;28;20054;-72
2022/12/21 03:21:32;;;;;;;2.35;1.15;;;10.10;99.90;;;9.52;100.00;97497.94;5013666;28;20053;-72
2022/12/21 03:24:07;;;;;;;3.45;1.48;;;10.10;99.90;;;9.55;100.00;97503.00;5014670;28;20103;-73
2022/12/21 03:26:49;;;;;;;2.55;1.73;;;10.00;99.90;;;9.54;100.00;97486.63;5014911;28;20125;-72
2022/12/21 03:29:21;;;;;;;2.03;1.15;;;10.00;99.90;;;9.59;100.00;97473.47;5018546;28;20049;-71
2022/12/21 03:32:03;;;;;;;3.65;1.17;;;10.00;99.90;;;9.61;100.00;97476.84;5029400;28;20054;-72
2022/12/21 03:34:36;;;;;;;2.08;1.00;;;10.10;99.90;;;9.67;100.00;97501.66;5012133;28;20055;-72
2022/12/21 03:37:10;;;;;;;2.47;1.40;;;10.10;99.90;;;9.62;100.00;97494.06;5015532;28;20049;-73
2022/12/21 03:39:44;;;;;;;2.17;1.40;;;10.10;99.90;;;9.61;100.00;97482.88;5019196;28;20056;-72
2022/12/21 03:42:19;;;;;;;1.67;1.00;;;10.10;99.90;;;9.59;100.00;97489.84;5012996;28;20055;-72
2022/12/21 03:45:16;;;;;;;2.00;1.10;;;10.10;99.90;;;9.68;100.00;97472.25;5014931;28;20073;-71
2022/12/21 03:48:00;;;;;;;3.30;1.30;;;10.10;99.90;;;9.60;100.00;97495.88;5016331;28;20056;-71
2022/12/21 03:50:35;;;;;;;2.28;1.10;;;10.10;99.90;;;9.61;100.00;97488.06;5020639;28;20074;-72
2022/12/21 03:53:42;;;;;;;1.42;0.95;;;10.20;99.90;;;9.58;100.00;97474.41;5017553;28;20503;-72
2022/12/21 03:56:19;;;;;;;2.08;1.20;;;10.20;99.90;;;9.58;100.00;97482.16;5022540;28;20526;-71
2022/12/21 03:58:46;;;;;;;3.30;1.30;;;10.20;99.90;;;9.52;100.00;97483.25;5021030;28;20381;-71
2022/12/21 04:01:33;;;;;;;2.90;1.20;;;10.10;99.90;;;9.49;100.00;97501.50;5015413;28;20054;-72
2022/12/21 04:04:11;;;;;;;2.78;1.40;;;10.20;99.90;;;9.49;100.00;97511.88;5019651;28;20372;-71
2022/12/21 04:06:41;;;;;;;2.47;1.20;;;10.10;99.90;;;9.51;100.00;97484.16;5016428;28;20140;-71
2022/12/21 04:09:09;;;;;;;2.38;1.27;;;10.10;99.90;;;9.56;100.00;97469.25;5015218;28;20046;-72
2022/12/21 04:14:22;;;;;;;2.95;1.08;;;10.20;99.90;;;9.86;100.00;97470.69;5019769;28;20128;-72
2022/12/21 04:16:49;;;;;;;6.65;1.55;;;10.20;99.90;;;9.72;100.00;97455.69;5015984;28;20063;-72
2022/12/21 04:22:04;;;;;;;2.47;1.40;;;10.20;99.90;;;9.73;100.00;97476.34;5015608;28;20098;-71
2022/12/21 04:30:04;;;;;;;2.10;1.20;;;10.10;99.90;;;9.87;100.00;97477.53;5016816;28;20049;-72
2022/12/21 04:32:31;;;;;;;2.75;0.80;;;10.10;99.90;;;9.89;100.00;97488.69;5013454;28;20050;-72
2022/12/21 04:34:58;;;;;;;1.50;0.88;;;10.10;99.90;;;9.86;100.00;97504.38;5018421;28;20056;-73
2022/12/21 04:37:31;;;;;;;2.88;1.40;;;10.10;99.90;;;9.84;100.00;97476.75;5014526;28;20046;-73
2022/12/21 04:39:59;;;;;;;2.60;1.20;;;10.10;99.90;;;9.78;100.00;97491.72;5018141;28;20483;-73
2022/12/21 04:42:27;;;;;;;2.92;1.30;;;10.10;99.90;;;9.77;100.00;97506.41;5019339;28;20076;-73
2022/12/21 04:44:54;;;;;;;2.78;1.05;;;10.20;99.90;;;10.08;100.00;97486.16;5017113;28;20157;-73
2022/12/21 04:47:21;;;;;;;2.58;1.30;;;10.10;99.90;;;10.02;100.00;97466.53;5020247;28;20046;-72
2022/12/21 04:49:48;;;;;;;2.10;1.20;;;10.10;99.90;;;9.96;100.00;97480.56;5020702;28;20083;-74
2022/12/21 04:52:15;;;;;;;3.05;1.30;;;10.20;99.90;;;10.04;100.00;97475.09;5023714;28;20396;-73
2022/12/21 04:54:42;;;;;;;2.50;1.13;;;10.30;99.90;;;9.95;100.00;97489.28;5014572;28;20054;-73
2022/12/21 04:57:10;;;;;;;5.93;1.50;;;10.20;99.90;;;10.08;100.00;97481.84;5018849;28;20149;-73
2022/12/21 04:59:36;;;;;;;2.85;1.10;;;10.10;99.90;;;10.11;100.00;97466.13;5017279;28;20488;-74
2022/12/21 05:02:04;;;;;;;2.67;1.20;;;10.10;99.90;;;10.10;100.00;97474.81;5019292;28;20056;-73
2022/12/21 05:04:31;;;;;;;2.65;1.55;;;10.10;99.90;;;10.15;100.00;97480.66;5018542;28;20042;-73
2022/12/21 05:06:58;;;;;;;2.20;1.38;;;10.10;99.90;;;10.10;100.00;97471.38;5016651;28;20049;-74
2022/12/21 05:09:25;;;;;;;3.10;1.10;;;10.30;99.90;;;10.17;100.00;97462.44;5024245;28;20465;-73
2022/12/21 05:11:53;;;;;;;3.35;1.15;;;10.10;99.90;;;10.12;100.00;97447.06;5019823;28;20061;-74
2022/12/21 05:14:20;;;;;;;3.03;1.35;;;10.10;99.90;;;10.06;100.00;97444.75;5014406;28;20119;-73
2022/12/21 05:16:48;;;;;;;2.63;1.23;;;10.10;99.90;;;10.16;100.00;97406.28;5020646;28;20049;-73
2022/12/21 05:19:15;;;;;;;2.58;1.40;;;10.20;99.90;;;10.12;100.00;97435.84;5017594;28;20046;-73
2022/12/21 05:21:42;;;;;;;2.75;1.17;;;10.10;99.90;;;10.18;100.00;97441.63;5021073;28;20061;-73
2022/12/21 05:24:10;;;;;;;4.20;1.15;;;10.10;99.90;;;10.01;100.00;97444.09;5016275;28;20046;-74
2022/12/21 05:26:37;;;;;;;2.38;1.33;;;10.10;99.90;;;10.04;100.00;97441.38;5019326;28;20077;-74
2022/12/21 05:29:04;;;;;;;2.35;1.35;;;10.10;99.90;;;9.99;100.00;97459.72;5023255;28;20053;-73
2022/12/21 05:31:31;;;;;;;2.72;0.80;;;10.10;99.90;;;10.07;100.00;97446.44;5017473;28;20050;-73
2022/12/21 05:33:58;;;;;;;4.40;0.82;;;10.10;99.90;;;10.17;100.00;97436.50;5019196;28;20052;-73
2022/12/21 05:36:25;;;;;;;2.92;1.15;;;10.00;99.90;;;10.10;100.00;97422.94;5016784;28;20073;-73
2022/12/21 05:38:55;;;;;;;3.10;0.95;;;10.00;99.90;;;10.07;100.00;97422.25;5016287;28;20136;-73
2022/12/21 05:41:22;;;;;;;1.98;0.90;;;10.10;99.90;;;10.09;100.00;97430.81;5021693;28;20129;-73
2022/12/21 05:43:48;;;;;;;1.52;0.93;;;10.10;99.90;;;10.11;100.00;97450.56;5016659;28;20638;-72
2022/12/21 05:46:15;;;;;;;2.47;1.05;;;10.10;99.90;;;10.14;100.00;97441.81;5018687;28;20057;-73
2022/12/21 05:48:54;;;;;;;2.60;0.90;;;10.10;99.90;;;10.09;100.00;97441.19;5016763;28;20470;-74
2022/12/21 05:51:21;;;;;;;6.25;1.10;;;10.00;99.90;;;10.14;100.00;97428.84;5016464;28;20053;-73
2022/12/21 05:53:48;;;;;;;1.83;1.00;;;10.00;99.90;;;10.09;100.00;97430.81;5016266;28;20042;-72
2022/12/21 05:56:15;;;;;;;1.73;0.95;;;10.10;99.90;;;10.11;100.00;97427.25;5018110;28;20046;-72
2022/12/21 05:58:42;;;;;;;1.60;0.85;;;10.00;99.90;;;10.14;100.00;97432.28;5016564;28;20525;-73
2022/12/21 06:01:10;;;;;;;3.38;0.88;;;10.10;99.90;;;10.08;100.00;97444.66;5016368;28;20133;-73
2022/12/21 06:03:39;;;;;;;1.38;0.80;;;10.10;99.90;;;10.09;100.00;97423.03;5021423;28;20125;-73
2022/12/21 06:06:09;;;;;;;1.88;0.90;;;10.00;99.90;;;10.20;100.00;97437.22;5015123;28;20073;-74
2022/12/21 06:08:37;;;;;;;1.63;0.90;;;10.10;99.90;;;10.15;100.00;97427.94;5023139;28;20145;-74
2022/12/21 06:11:13;;;;;;;8.15;1.65;;;10.10;99.90;;;10.06;100.00;97447.34;5018627;28;20464;-75
2022/12/21 06:13:41;;;;;;;2.08;1.00;;;10.10;99.90;;;9.97;100.00;97424.41;5024666;28;20054;-75
2022/12/21 06:16:20;;;;;;;1.25;0.80;;;10.00;99.90;;;9.93;100.00;97423.69;5019405;28;20488;-76
2022/12/21 06:18:48;;;;;;;1.73;0.90;;;10.10;99.90;;;9.93;100.00;97434.03;5015200;28;20057;-76
2022/12/21 06:21:16;;;;;;;1.73;0.90;;;10.10;99.90;;;9.98;100.00;97452.00;5014663;28;20539;-74
2022/12/21 06:23:45;;;;;;;2.83;1.15;;;10.00;99.90;;;9.97;100.00;97432.19;5015962;28;20633;-75
2022/12/21 06:26:16;;;;;;;1.70;0.85;;;10.20;99.90;;;10.00;100.00;97443.25;5001621;28;20125;-76
2022/12/21 06:28:53;;;;;;;2.30;1.08;;;10.00;99.90;;;10.07;100.00;97433.47;5024005;28;20056;-75
2022/12/21 06:31:21;;;;;;;2.40;1.40;;;10.00;99.90;;;10.00;100.00;97445.84;5017434;28;20540;-74
2022/12/21 06:33:48;;;;;;;4.45;1.58;;;10.00;99.90;;;9.82;100.00;97438.84;5019881;28;20068;-74
2022/12/21 06:36:15;;;;;;;4.35;1.20;;;10.10;99.90;;;9.89;100.00;97429.06;5018875;28;20425;-74
2022/12/21 06:38:42;;;;;;;1.60;0.90;;;10.10;99.90;;;9.91;100.00;97435.84;5021990;28;20369;-75
2022/12/21 06:41:13;;;;;;;3.38;1.33;;;10.10;99.90;;;9.91;100.00;97445.38;5016033;28;20076;-74
2022/12/21 06:43:42;;;;;;;1.75;1.13;;;10.10;99.90;;;9.91;100.00;97459.19;5015859;28;20550;-74
2022/12/21 06:46:15;;;;;;;2.00;1.42;;;10.10;99.90;;;9.91;100.00;97432.44;5017594;28;20419;-74
2022/12/21 06:48:43;;;;;;;2.00;1.23;;;10.10;99.90;;;9.92;100.00;97439.28;5016955;28;20388;-74
2022/12/21 06:51:22;;;;;;;4.18;1.20;;;10.10;99.90;;;9.76;100.00;97426.13;5016722;28;20051;-74
2022/12/21 06:53:52;;;;;;;3.38;1.30;;;10.10;99.90;;;9.91;100.00;97428.09;5016339;28;20773;-74
2022/12/21 06:56:21;;;;;;;3.08;1.80;;;10.20;99.90;;;9.75;100.00;97434.81;5013544;28;20057;-75
2022/12/21 06:58:50;;;;;;;2.33;1.50;;;10.10;99.90;;;9.73;100.00;97442.66;5016872;28;20140;-73
2022/12/21 07:01:27;;;;;;;5.25;1.70;;;10.20;99.90;;;9.77;100.00;97443.38;5020823;28;20459;-74
2022/12/21 07:03:55;;;;;;;2.97;1.65;;;10.20;99.90;;;9.74;100.00;97446.06;5011761;28;20112;-75
2022/12/21 07:06:25;;;;;;;2.75;1.70;;;10.20;99.90;;;9.79;100.00;97423.41;5014286;28;20126;-74
2022/12/21 07:08:53;;;;;;;2.38;1.70;;;10.10;99.90;;;9.80;100.00;97418.16;5014757;28;20054;-74
2022/12/21 07:11:23;;;;;;;2.95;1.55;;;10.20;99.90;;;9.86;100.00;97437.81;5015832;28;20045;-74
2022/12/21 07:13:54;;;;;;;4.30;1.65;;;10.20;99.90;;;9.87;100.00;97441.22;5025040;28;20263;-73
2022/12/21 07:16:22;;;;;;;3.95;1.80;;;10.10;99.90;;;9.86;100.00;97439.56;5025364;28;20092;-74
2022/12/21 07:18:50;;;;;;;2.33;1.45;;;10.20;99.90;;;9.90;100.00;97449.75;5014242;28;20559;-74
2022/12/21 07:21:19;;;;;;;5.03;1.73;;;10.20;99.90;;;9.86;100.00;97452.53;5020287;28;20519;-74
2022/12/21 07:23:47;;;;;;;3.85;2.25;;;10.20;99.90;;;9.77;100.00;97441.63;5015936;28;20125;-73
2022/12/21 07:26:17;;;;;;;3.92;2.10;;;;;;;9.84;100.00;97455.16;5017992;28;20046;-73
2022/12/21 07:28:45;;;;;;;5.28;2.10;;;10.20;99.90;;;9.82;100.00;97451.78;5013938;28;20069;-74
2022/12/21 07:31:18;;;;;;;3.88;2.10;;;10.20;99.90;;;9.88;100.00;97445.53;5016486;28;20130;-74
2022/12/21 07:33:46;;;;;;;6.35;2.80;;;10.30;99.90;;;9.87;100.00;97429.09;5013374;28;20061;-74
2022/12/21 07:36:13;;;;;;;3.03;2.08;;;;;;;9.81;100.00;97424.22;5019503;28;20137;-73
2022/12/21 07:38:41;;;;;;;3.67;2.03;;;10.30;99.90;;;9.83;100.00;97431.00;5019435;28;20060;-73
2022/12/21 07:41:15;;;;;;;3.08;2.50;;;10.20;99.90;;;9.79;100.00;97423.41;5032038;28;20049;-74
2022/12/21 07:43:42;;;;;;;4.05;2.20;;;10.30;99.90;;;9.81;100.00;97411.25;5017146;28;20522;-74
2022/12/21 07:46:09;;;;;;;4.13;1.98;;;;;;;9.81;100.00;97411.25;5018937;28;20072;-74
2022/12/21 07:48:37;;;;;;;5.32;2.58;;;10.30;99.90;;;9.77;100.00;97407.94;5014498;28;20069;-74
2022/12/21 07:51:05;;;;;;;3.30;2.38;;;10.30;99.90;;;9.74;100.00;97418.44;5013537;28;20046;-74
2022/12/21 07:53:33;;;;;;;4.95;2.45;;;10.20;99.90;;;9.74;100.00;97402.88;5016746;28;20171;-74
2022/12/21 07:56:07;;;;;;;4.47;2.30;;;10.20;99.90;;;9.73;100.00;97403.78;5018111;28;20132;-74
2022/12/21 07:58:34;;;;;;;3.00;2.10;;;10.20;99.90;;;9.76;100.00;97416.63;5016781;28;20529;-74
2022/12/21 08:01:11;;;;;;;2.97;2.20;;;10.30;99.90;;;9.74;100.00;97420.16;5016721;28;20243;-75
2022/12/21 08:03:47;;;;;;;5.63;1.85;;;10.20;99.90;;;9.75;100.00;97411.50;5021682;28;20516;-74
2022/12/21 08:06:15;;;;;;;3.35;2.90;;;10.20;99.90;;;9.70;100.00;97411.69;5013439;28;20046;-74
2022/12/21 08:08:42;;;;;;;3.35;2.40;;;10.30;99.90;;;9.80;100.00;97414.72;5017249;28;20092;-74
2022/12/21 08:11:16;;;;;;;4.32;2.47;;;10.20;99.90;;;9.82;100.00;97411.16;5012399;28;20041;-73
2022/12/21 08:13:45;;;;;;;5.30;2.95;;;10.20;99.90;;;9.74;100.00;97413.25;5026860;28;20053;-73
2022/12/21 08:16:16;;;;;;;4.05;2.95;;;10.20;99.90;;;9.90;100.00;97410.00;5018855;28;20055;-72
2022/12/21 08:18:43;;;;;;;4.57;2.97;;;10.20;99.90;;;9.80;100.00;97405.19;5012094;28;20112;-72
2022/12/21 08:21:10;;;;;;;3.45;2.25;;;10.20;99.90;;;9.81;100.00;97400.88;5018302;28;20053;-73
2022/12/21 08:23:37;;;;;;;3.90;2.70;;;10.20;99.90;;;9.78;100.00;97406.16;5020419;28;20053;-73
2022/12/21 08:26:07;;;;;;;4.15;2.50;;;10.30;99.90;;;9.82;100.00;97411.16;5017993;28;20148;-73
2022/12/21 08:28:35;;;;;;;5.13;3.35;;;10.30;99.90;;;9.79;100.00;97406.13;5021699;28;20037;-73
2022/12/21 08:31:12;;;;;;;4.25;2.90;;;10.20;99.90;;;9.89;100.00;97408.31;5017465;28;20056;-72
2022/12/21 08:33:43;;;;;;;5.70;3.13;;;10.20;99.90;;;9.93;100.00;97396.91;5017199;28;20136;-72
2022/12/21 08:36:14;;;;;;;4.50;2.70;;;10.30;99.90;;;9.88;100.00;97402.28;5017600;28;20085;-73
2022/12/21 08:38:42;;;;;;;5.30;2.33;;;10.20;99.90;;;9.85;100.00;97397.22;5018081;28;20475;-72
2022/12/21 08:41:28;;;;;;;4.25;3.03;;;10.20;99.90;;;9.88;100.00;97389.34;5022353;28;20514;-73
2022/12/21 08:43:55;;;;;;;5.32;2.50;;;10.20;99.90;;;9.79;100.00;97381.94;5018279;28;20120;-73
2022/12/21 08:46:22;;;;;;;4.13;2.45;;;10.30;99.90;;;9.89;100.00;97382.38;5020657;28;20623;-73
2022/12/21 08:48:49;;;;;;;3.53;2.20;;;10.30;99.90;;;9.85;100.00;97379.06;5018020;28;20128;-73
2022/12/21 08:51:16;;;;;;;3.72;2.28;;;10.30;99.90;;;9.84;100.00;97398.13;5017422;28;20053;-72
2022/12/21 08:53:43;;;;;;;5.97;2.45;;;10.40;99.90;;;9.82;100.00;97376.63;5014931;28;20184;-72
2022/12/21 08:56:19;;;;;;;3.67;2.15;;;10.50;99.90;;;9.88;100.00;97388.50;5036719;28;20063;-72
2022/12/21 08:58:46;;;;;;;3.30;2.28;;;10.50;99.90;;;9.90;100.00;97391.84;5016074;28;20089;-71
2022/12/21 09:01:18;;;;;;;5.18;2.00;;;;;;;9.94;100.00;97402.00;5017531;28;20140;-72
2022/12/21 09:03:45;;;;;;;3.90;2.00;;;10.70;99.90;;;9.95;100.00;97410.66;5019762;28;20050;-73
2022/12/21 09:06:12;;;;;;;3.63;2.35;;;10.70;99.90;;;10.02;100.00;97410.31;5015802;28;20486;-72
2022/12/21 09:08:39;;;;;;;8.60;2.10;;;10.60;99.90;;;9.93;100.00;97405.53;5014269;28;20141;-73
2022/12/21 09:11:10;;;;;;;4.28;2.17;;;10.70;99.90;;;9.93;100.00;97399.50;5018903;28;20057;-72
2022/12/21 09:13:38;;;;;;;6.00;2.15;;;10.80;99.90;;;9.99;100.00;97381.06;5023613;28;20522;-72
2022/12/21 09:16:19;;;;;;;5.22;2.15;;;10.60;99.90;;;9.95;100.00;97398.53;5021442;28;20053;-72
2022/12/21 09:18:48;;;;;;;2.40;1.70;;;10.50;99.90;;;9.97;100.00;97388.94;5019700;28;20062;-72
2022/12/21 09:21:18;;;;;;;4.30;2.55;;;10.50;99.90;;;9.96;100.00;97381.22;5024283;28;20049;-72
2022/12/21 09:23:45;;;;;;;3.65;2.00;;;10.50;99.90;;;10.00;100.00;97419.06;5023604;28;20046;-72
2022/12/21 09:26:13;;;;;;;4.65;2.45;;;10.50;99.90;;;9.94;100.00;97409.78;5020115;28;20144;-72
2022/12/21 09:28:40;;;;;;;5.22;3.40;;;10.50;99.90;;;9.96;100.00;97397.59;5023184;28;20053;-72
2022/12/21 09:31:08;;;;;;;4.68;3.03;;;10.50;99.90;;;9.91;100.00;97398.72;5017020;28;20054;-72
2022/12/21 09:33:38;;;;;;;3.53;2.63;;;10.50;99.90;;;9.87;100.00;97390.22;5018011;28;20087;-73
2022/12/21 09:36:06;;;;;;;4.13;2.40;;;10.50;99.90;;;9.92;100.00;97405.59;5017424;28;20050;-72
2022/12/21 09:38:34;;;;;;;3.28;2.40;;;10.40;99.90;;;9.94;100.00;97421.91;5016216;28;20049;-72
2022/12/21 09:41:49;;;;;;;3.63;2.50;;;10.40;99.90;;;9.89;100.00;97411.75;5005331;28;20484;-72
2022/12/21 09:44:42;;;;;;;3.40;2.15;;;10.40;99.90;;;9.88;100.00;97417.00;5022888;28;20048;-73
2022/12/21 09:47:45;;;;;;;3.00;1.80;;;10.40;99.90;;;9.93;100.00;97426.28;5016202;28;20049;-72
2022/12/21 09:50:39;;;;;;;2.88;2.25;;;10.40;99.90;;;9.92;100.00;97419.41;5022163;28;20173;-72
2022/12/21 09:53:30;;;;;;;4.22;1.73;;;10.40;99.90;;;9.90;100.00;97407.41;5019894;28;20064;-72
2022/12/21 09:55:59;;;;;;;3.05;1.98;;;10.30;99.90;;;9.95;100.00;97426.22;5020479;28;20060;-73
2022/12/21 09:58:40;;;;;;;5.07;2.33;;;10.40;99.90;;;9.96;100.00;97415.75;5018647;28;20575;-73
2022/12/21 10:01:42;;;;;;;3.75;1.85;;;10.50;99.90;;;10.04;100.00;97423.22;5019922;28;20048;-72
2022/12/21 10:04:46;;;;;;;3.47;2.00;;;10.50;99.90;;;10.02;100.00;97430.22;5005852;28;20232;-73
2022/12/21 10:08:04;;;;;;;2.95;1.98;;;10.50;99.90;;;10.01;100.00;97428.53;5018473;28;20565;-72
2022/12/21 10:10:51;;;;;;;3.10;1.52;;;10.50;99.90;;;10.09;100.00;97436.00;5015270;28;20064;-73
2022/12/21 10:13:45;;;;;;;3.90;1.98;;;10.50;99.90;;;9.99;100.00;97428.59;5017856;28;20067;-73
2022/12/21 10:16:45;;;;;;;6.25;2.00;;;10.60;99.90;;;9.97;100.00;97407.09;5033622;28;20680;-72
2022/12/21 10:19:34;;;;;;;3.03;1.80;;;10.60;99.90;;;9.89;100.00;97418.69;5021664;28;20056;-72
2022/12/21 10:22:24;;;;;;;2.85;1.30;;;10.50;99.90;;;9.93;100.00;97413.31;5014455;28;20072;-74
2022/12/21 10:24:57;;;;;;;2.47;1.20;;;10.50;99.90;;;9.91;100.00;97435.03;5016661;28;20145;-72
2022/12/21 10:27:30;;;;;;;2.03;1.50;;;10.40;99.90;;;9.95;100.00;97431.41;5017782;28;20045;-73
2022/12/21 10:29:59;;;;;;;4.22;1.33;;;10.40;99.90;;;9.90;100.00;97435.91;5011950;28;20076;-73
2022/12/21 10:32:31;;;;;;;4.82;1.70;;;10.40;99.90;;;9.94;100.00;97432.28;5017095;28;20128;-74
2022/12/21 10:35:27;;;;;;;3.63;1.95;;;10.40;99.90;;;9.98;100.00;97426.91;5020548;28;20379;-75
2022/12/21 10:37:55;;;;;;;2.85;1.90;;;10.40;99.90;;;9.91;100.00;97425.50;5016761;28;20045;-75
2022/12/21 10:40:32;;;;;;;2.35;1.45;;;10.40;99.90;;;9.89;100.00;97437.66;5021898;28;20050;-74
2022/12/21 10:43:00;;;;;;;4.15;1.73;;;10.40;99.90;;;9.92;100.00;97436.69;5016004;28;20610;-74
2022/12/21 10:45:27;;;;;;;3.35;1.75;;;10.40;99.90;;;9.83;100.00;97441.38;5016675;28;20080;-73
2022/12/21 10:47:54;;;;;;;5.05;2.58;;;10.50;99.90;;;9.88;100.00;97433.41;5015214;28;20046;-74
2022/12/21 10:50:34;;;;;;;3.33;2.13;;;10.50;99.90;;;9.96;100.00;97448.63;5018306;28;20053;-73
2022/12/21 10:53:27;;;;;;;3.30;2.15;;;10.50;99.90;;;9.97;100.00;97438.19;5016137;28;20087;-73
2022/12/21 10:55:57;;;;;;;3.00;1.40;;;10.50;99.90;;;9.91;100.00;97446.22;5023613;28;20046;-73
2022/12/21 10:58:28;;;;;;;1.73;1.23;;;10.70;99.90;;;9.99;100.00;97446.75;5014442;28;20085;-73
2022/12/21 11:01:06;;;;;;;3.35;1.70;;;10.70;99.90;;;10.08;100.00;97440.34;5016684;28;20085;-73